To NAV CANADA Home Page Login to a new session Search on AWWS site Feedback and Comments Disclaimer Vers la page française équivalente Tips FAQ What's new on the site To the Forecasts and Observations / NOTAM section To "File a Flight Plan" website Publications and other links Update of the User's profile FIC Telephone Numbers My Weather Data Folder Route Weather Data Regional Weather Data Local Weather Data To the Forecasts and Observations / NOTAM section
Request Generated 05/28/2016 at 19:58:24 UTC . Weather information available at that time is displayed.

METAR/TAF

WINNIPEG/JAMES ARMSTRONG RICHARDSON INTL/MB    

METAR CYWG 281900Z 03012G17KT 15SM SCT012 BKN100 18/15 A2989 RMK
SC4AC3 SLP128 DENSITY ALT 1300FT=
SPECI CYWG 281817Z 04009G15KT 12SM OVC011 17/15 A2991 RMK SC8 SLP133
DENSITY ALT 1100FT=
METAR CYWG 281800Z 03010KT 10SM OVC009 16/15 A2991 RMK SC8 SLP134
DENSITY ALT 1000FT=
SPECI CYWG 281727Z 05011KT 8SM OVC006 15/15 A2991 RMK ST8 SLP134
DENSITY ALT 900FT=
METAR CYWG 281700Z 03011KT 4SM BR OVC003 14/14 A2991 RMK ST8 SLP133
DENSITY ALT 800FT=

TAF AMD CYWG 281905Z 2819/2918 05012KT P6SM SCT012 BKN100 TEMPO
2819/2904 P6SM -SHRA OVC012 PROB30 2821/2904 VRB20G30KT 4SM TSRA
BKN012CB
FM290400 06012KT P6SM FEW008 BKN010 TEMPO 2904/2909 SCT010 OVC025
BECMG 2906/2908 12005KT
FM290900 12005KT P6SM -SHRA BKN020
FM291500 VRB03KT 4SM -SHRA BR OVC008
RMK NXT FCST BY 290000Z=
Your time UTC time
Weather data provided by Environment Canada and NAV CANADA